createdAt,value
2024-04-15T00:01:08.196Z,97121.25
2024-04-15T00:03:35.064Z,97119.22
2024-04-15T00:06:01.872Z,97114.84
2024-04-15T00:08:28.576Z,97119.19
2024-04-15T00:10:55.295Z,97121.72
2024-04-15T00:13:22.055Z,97109.25
2024-04-15T00:15:59.005Z,97112.28
2024-04-15T00:18:26.331Z,97115.41
2024-04-15T00:21:02.766Z,97110.31
2024-04-15T00:23:29.557Z,97110.44
2024-04-15T00:25:57.313Z,97098.44
2024-04-15T00:28:24.500Z,97101.88
2024-04-15T00:30:51.432Z,97096.56
2024-04-15T00:33:19.081Z,97087.13
2024-04-15T00:35:46.335Z,97076.91
2024-04-15T00:38:14.358Z,97067.72
2024-04-15T00:40:41.289Z,97066.25
2024-04-15T00:43:09.200Z,97055.88
2024-04-15T00:45:36.103Z,97052.19
2024-04-15T00:48:04.451Z,97051.50
2024-04-15T00:50:33.768Z,97033.78
2024-04-15T00:53:03.198Z,97024.59
2024-04-15T00:55:31.770Z,97022.75
2024-04-15T00:57:58.620Z,97023.78
2024-04-15T01:00:25.793Z,97012.72
2024-04-15T01:02:52.958Z,97017.22
2024-04-15T01:05:19.652Z,97020.81
2024-04-15T01:07:46.342Z,97027.13
2024-04-15T01:10:13.367Z,97033.31
2024-04-15T01:12:41.841Z,97037.25
2024-04-15T01:15:08.736Z,97031.91
2024-04-15T01:17:35.564Z,97033.31
2024-04-15T01:20:02.401Z,97019.50
2024-04-15T01:22:35.175Z,97013.06
2024-04-15T01:25:03.359Z,97026.63
2024-04-15T01:27:30.198Z,97026.22
2024-04-15T01:29:56.895Z,97016.84
2024-04-15T01:32:23.650Z,96996.34
2024-04-15T01:34:50.359Z,96975.88
2024-04-15T01:37:17.034Z,96976.34
2024-04-15T01:39:43.875Z,96978.72
2024-04-15T01:42:10.559Z,96971.66
2024-04-15T01:44:37.253Z,96949.50
2024-04-15T01:47:04.086Z,96947.78
2024-04-15T01:49:30.799Z,96953.94
2024-04-15T01:51:57.493Z,96985.69
2024-04-15T01:54:24.231Z,96968.53
2024-04-15T01:56:50.877Z,96963.53
2024-04-15T01:59:17.640Z,96956.81
2024-04-15T02:01:44.313Z,96947.88
2024-04-15T02:04:11.058Z,96938.69
2024-04-15T02:06:38.028Z,96961.38
2024-04-15T02:09:04.739Z,96959.94
2024-04-15T02:11:31.430Z,96962.91
2024-04-15T02:13:58.097Z,96951.13
2024-04-15T02:16:24.785Z,96965.84
2024-04-15T02:18:51.523Z,96948.00
2024-04-15T02:21:18.769Z,96943.63
2024-04-15T02:23:45.451Z,96945.66
2024-04-15T02:26:12.202Z,96932.56
2024-04-15T02:28:38.929Z,96917.91
2024-04-15T02:31:05.777Z,96916.09
2024-04-15T02:33:32.691Z,96925.91
2024-04-15T02:35:59.345Z,96885.34
2024-04-15T02:38:26.025Z,96847.03
2024-04-15T02:40:53.955Z,96854.38
2024-04-15T02:43:20.672Z,96864.94
2024-04-15T02:45:49.128Z,96876.63
2024-04-15T02:48:19.084Z,96872.91
2024-04-15T02:50:45.796Z,96870.44
2024-04-15T02:53:12.462Z,96869.59
2024-04-15T02:55:39.160Z,96855.34
2024-04-15T02:58:05.888Z,96826.69
2024-04-15T03:00:33.537Z,96850.00
2024-04-15T03:03:00.537Z,96868.88
2024-04-15T03:05:27.293Z,96871.19
2024-04-15T03:07:54.068Z,96854.94
2024-04-15T03:10:20.889Z,96856.50
2024-04-15T03:12:52.885Z,96847.13
2024-04-15T03:15:19.869Z,96850.16
2024-04-15T03:17:50.221Z,96850.72
2024-04-15T03:20:17.355Z,96837.63
2024-04-15T03:22:53.573Z,96836.78
2024-04-15T03:25:21.811Z,96864.56
2024-04-15T03:27:52.100Z,96859.31
2024-04-15T03:30:19.173Z,96860.19
2024-04-15T03:32:45.921Z,96865.09
2024-04-15T03:35:15.519Z,96867.34
2024-04-15T03:37:43.216Z,96863.47
2024-04-15T03:40:11.684Z,96874.13
2024-04-15T03:42:38.735Z,96880.19
2024-04-15T03:45:07.135Z,96880.75
2024-04-15T03:47:34.028Z,96875.28
2024-04-15T03:50:00.919Z,96879.47
2024-04-15T03:52:27.685Z,96881.72
2024-04-15T03:54:54.398Z,96873.28
2024-04-15T03:57:21.121Z,96862.91
2024-04-15T03:59:47.798Z,96865.38
2024-04-15T04:02:14.538Z,96861.09
2024-04-15T04:04:41.956Z,96871.03
2024-04-15T04:07:09.016Z,96876.50
2024-04-15T04:09:39.158Z,96880.09
2024-04-15T04:12:06.205Z,96876.50
2024-04-15T04:14:33.002Z,96868.56
2024-04-15T04:16:59.709Z,96871.31
2024-04-15T04:19:27.071Z,96879.09
2024-04-15T04:21:54.083Z,96865.16
2024-04-15T04:24:20.831Z,96872.06
2024-04-15T04:26:47.551Z,96868.59
2024-04-15T04:29:14.296Z,96872.19
2024-04-15T04:31:41.202Z,96885.28
2024-04-15T04:34:08.034Z,96880.97
2024-04-15T04:36:34.831Z,96880.97
2024-04-15T04:39:01.573Z,96898.09
2024-04-15T04:41:29.727Z,96896.34
2024-04-15T04:43:56.440Z,96894.31
2024-04-15T04:46:23.143Z,96892.19
2024-04-15T04:48:50.901Z,96897.91
2024-04-15T04:51:17.730Z,96899.06
2024-04-15T04:53:44.598Z,96894.91
2024-04-15T04:56:12.927Z,96896.78
2024-04-15T04:58:39.960Z,96897.91
2024-04-15T05:01:14.511Z,96901.06
2024-04-15T05:03:45.497Z,96893.44
2024-04-15T05:06:13.501Z,96898.31
2024-04-15T05:08:40.683Z,96900.63
2024-04-15T05:11:07.875Z,96902.75
2024-04-15T05:13:35.056Z,96904.63
2024-04-15T05:16:07.713Z,96914.56
2024-04-15T05:18:35.131Z,96909.84
2024-04-15T05:21:02.255Z,96906.97
2024-04-15T05:23:29.586Z,96916.19
2024-04-15T05:25:57.553Z,96903.94
2024-04-15T05:28:24.351Z,96912.03
2024-04-15T05:30:55.828Z,96906.16
2024-04-15T05:33:22.747Z,96912.34
2024-04-15T05:35:49.704Z,96913.91
2024-04-15T05:38:17.347Z,96922.13
2024-04-15T05:40:44.252Z,96921.22
2024-04-15T05:43:11.841Z,96930.16
2024-04-15T05:45:38.905Z,96917.50
2024-04-15T05:48:06.546Z,96922.22
2024-04-15T05:50:33.653Z,96929.13
2024-04-15T05:53:00.344Z,96932.97
2024-04-15T05:55:27.171Z,96934.00
2024-04-15T05:57:53.899Z,96933.31
2024-04-15T06:00:20.932Z,96935.47
2024-04-15T06:02:47.933Z,96930.44
2024-04-15T06:05:14.665Z,96912.75
2024-04-15T06:07:41.578Z,96910.81
2024-04-15T06:10:08.356Z,96915.25
2024-04-15T06:12:35.055Z,96903.28
2024-04-15T06:15:01.898Z,96898.09
2024-04-15T06:17:30.235Z,96897.22
2024-04-15T06:19:56.936Z,96897.66
2024-04-15T06:22:24.444Z,96888.84
2024-04-15T06:24:51.252Z,96883.75
2024-04-15T06:27:19.539Z,96887.03
2024-04-15T06:29:46.254Z,96889.31
2024-04-15T06:32:13.584Z,96884.81
2024-04-15T06:34:40.443Z,96884.31
2024-04-15T06:37:07.155Z,96881.41
2024-04-15T06:39:35.332Z,96903.03
2024-04-15T06:42:02.210Z,96909.94
2024-04-15T06:44:28.899Z,96906.03
2024-04-15T06:46:56.323Z,96895.28
2024-04-15T06:49:23.112Z,96878.13
2024-04-15T06:51:50.075Z,96880.44
2024-04-15T06:54:16.965Z,96881.47
2024-04-15T06:56:43.671Z,96863.91
2024-04-15T06:59:10.362Z,96862.91
2024-04-15T07:01:39.292Z,96872.09
2024-04-15T07:04:07.489Z,96870.31
2024-04-15T07:06:34.394Z,96866.88
2024-04-15T07:09:01.242Z,96867.91
2024-04-15T07:11:28.032Z,96856.09
2024-04-15T07:13:54.763Z,96857.13
2024-04-15T07:16:21.683Z,96858.88
2024-04-15T07:18:48.521Z,96860.72
2024-04-15T07:21:15.424Z,96856.53
2024-04-15T07:23:46.058Z,96856.22
2024-04-15T07:26:13.033Z,96861.16
2024-04-15T07:28:40.589Z,96847.81
2024-04-15T07:31:08.096Z,96841.19
2024-04-15T07:33:35.065Z,96836.59
2024-04-15T07:36:02.413Z,96833.88
2024-04-15T07:38:29.428Z,96843.09
2024-04-15T07:40:59.879Z,96844.94
2024-04-15T07:43:26.931Z,96835.44
2024-04-15T07:45:53.753Z,96831.03
2024-04-15T07:48:20.508Z,96821.06
2024-04-15T07:50:47.206Z,96822.41
2024-04-15T07:53:13.904Z,96826.38
2024-04-15T07:55:44.818Z,96816.09
2024-04-15T07:58:11.618Z,96823.53
2024-04-15T08:00:38.571Z,96830.44
2024-04-15T08:03:05.544Z,96824.00
2024-04-15T08:05:32.806Z,96824.97
2024-04-15T08:07:59.622Z,96822.25
2024-04-15T08:10:26.449Z,96827.44
2024-04-15T08:12:53.613Z,96821.06
2024-04-15T08:15:21.111Z,96820.41
2024-04-15T08:17:47.857Z,96821.44
2024-04-15T08:20:14.613Z,96814.19
2024-04-15T08:22:42.126Z,96825.81
2024-04-15T08:25:10.259Z,96826.53
2024-04-15T08:27:37.728Z,96820.34
2024-04-15T08:30:05.424Z,96831.72
2024-04-15T08:32:32.816Z,96821.03
2024-04-15T08:35:00.156Z,96822.72
2024-04-15T08:37:26.933Z,96821.16
2024-04-15T08:39:53.871Z,96819.53
2024-04-15T08:42:37.903Z,96818.22
2024-04-15T08:45:08.265Z,96816.63
2024-04-15T08:47:36.300Z,96810.13
2024-04-15T08:50:06.803Z,96804.00
2024-04-15T08:52:33.417Z,96803.25
2024-04-15T08:55:00.336Z,96811.03
2024-04-15T08:57:28.807Z,96799.41
2024-04-15T08:59:57.280Z,96809.84
2024-04-15T09:02:24.157Z,96803.63
2024-04-15T09:04:53.452Z,96800.06
2024-04-15T09:07:21.819Z,96793.41
2024-04-15T09:09:49.081Z,96791.50
2024-04-15T09:12:15.811Z,96791.88
2024-04-15T09:14:42.501Z,96789.53
2024-04-15T09:17:12.180Z,96788.13
2024-04-15T09:19:42.622Z,96789.03
2024-04-15T09:22:09.369Z,96792.69
2024-04-15T09:24:36.406Z,96788.47
2024-04-15T09:27:03.077Z,96783.03
2024-04-15T09:29:29.764Z,96781.38
2024-04-15T09:31:57.078Z,96774.31
2024-04-15T09:34:23.838Z,96774.13
2024-04-15T09:36:58.130Z,96779.84
2024-04-15T09:39:25.301Z,96779.94
2024-04-15T09:41:54.384Z,96770.31
2024-04-15T09:44:21.442Z,96765.16
2024-04-15T09:46:48.539Z,96777.31
2024-04-15T09:49:15.708Z,96775.44
2024-04-15T09:51:43.717Z,96769.38
2024-04-15T09:54:11.966Z,96770.06
2024-04-15T09:56:49.031Z,96767.06
2024-04-15T09:59:16.874Z,96769.34
2024-04-15T10:01:44.691Z,96755.19
2024-04-15T10:04:22.208Z,96750.31
2024-04-15T10:06:53.301Z,96748.66
2024-04-15T10:09:20.493Z,96741.56
2024-04-15T10:11:48.849Z,96742.63
2024-04-15T10:14:20.262Z,96734.81
2024-04-15T10:16:49.007Z,96735.38
2024-04-15T10:19:27.958Z,96738.75
2024-04-15T10:21:56.179Z,96725.50
2024-04-15T10:24:23.726Z,96726.13
2024-04-15T10:26:50.470Z,96720.84
2024-04-15T10:29:22.942Z,96708.28
2024-04-15T10:31:53.863Z,96718.81
2024-04-15T10:34:25.257Z,96699.84
2024-04-15T10:36:53.646Z,96711.25
2024-04-15T10:39:21.814Z,96700.81
2024-04-15T10:41:49.444Z,96704.13
2024-04-15T10:44:16.457Z,96695.50
2024-04-15T10:46:49.268Z,96686.44
2024-04-15T10:49:16.989Z,96684.53
2024-04-15T10:51:44.748Z,96707.16
2024-04-15T10:54:11.492Z,96684.19
2024-04-15T10:56:38.233Z,96692.84
2024-04-15T10:59:05.324Z,96695.69
2024-04-15T11:01:32.077Z,96689.19
2024-04-15T11:03:59.010Z,96690.00
2024-04-15T11:06:29.113Z,96681.66
2024-04-15T11:08:58.251Z,96681.13
2024-04-15T11:11:26.722Z,96660.00
2024-04-15T11:13:53.860Z,96665.88
2024-04-15T11:16:20.875Z,96664.47
2024-04-15T11:18:47.717Z,96657.88
2024-04-15T11:21:14.679Z,96650.03
2024-04-15T11:23:41.417Z,96638.94
2024-04-15T11:26:08.866Z,96643.06
2024-04-15T11:28:36.590Z,96642.53
2024-04-15T11:31:03.871Z,96624.38
2024-04-15T11:33:30.740Z,96615.44
2024-04-15T11:35:57.572Z,96609.44
2024-04-15T11:38:25.613Z,96580.84
2024-04-15T11:40:55.463Z,96585.00
2024-04-15T11:43:22.685Z,96560.50
2024-04-15T11:45:56.421Z,96586.66
2024-04-15T11:48:23.924Z,96569.66
2024-04-15T11:50:51.025Z,96560.25
2024-04-15T11:53:27.777Z,96559.56
2024-04-15T11:55:55.103Z,96544.16
2024-04-15T11:58:22.542Z,96548.50
2024-04-15T12:00:49.568Z,96533.50
2024-04-15T12:03:16.478Z,96538.28
2024-04-15T12:05:43.533Z,96552.34
2024-04-15T12:08:10.347Z,96526.34
2024-04-15T12:10:37.187Z,96513.28
2024-04-15T12:13:05.144Z,96521.63
2024-04-15T12:15:31.891Z,96521.91
2024-04-15T12:17:58.732Z,96501.66
2024-04-15T12:20:25.700Z,96500.50
2024-04-15T12:22:52.417Z,96503.34
2024-04-15T12:25:19.143Z,96495.22
2024-04-15T12:27:46.663Z,96494.38
2024-04-15T12:30:13.684Z,96477.72
2024-04-15T12:32:43.590Z,96472.72
2024-04-15T12:35:11.969Z,96481.50
2024-04-15T12:37:38.853Z,96472.34
2024-04-15T12:40:07.610Z,96479.19
2024-04-15T12:42:35.263Z,96460.09
2024-04-15T12:45:02.477Z,96465.88
2024-04-15T12:47:29.251Z,96479.31
2024-04-15T12:49:56.017Z,96457.94
2024-04-15T12:52:22.846Z,96446.47
2024-04-15T12:54:52.441Z,96472.25
2024-04-15T12:57:20.721Z,96447.50
2024-04-15T12:59:47.670Z,96444.22
2024-04-15T13:02:14.450Z,96450.78
2024-04-15T13:04:41.257Z,96430.22
2024-04-15T13:07:08.235Z,96426.31
2024-04-15T13:09:35.114Z,96418.94
2024-04-15T13:12:01.812Z,96411.03
2024-04-15T13:14:28.589Z,96420.81
2024-04-15T13:16:55.286Z,96413.75
2024-04-15T13:19:22.169Z,96423.25
2024-04-15T13:21:49.011Z,96411.31
2024-04-15T13:24:16.747Z,96401.38
2024-04-15T13:26:43.471Z,96393.72
2024-04-15T13:29:10.257Z,96389.25
2024-04-15T13:31:37.043Z,96397.09
2024-04-15T13:34:05.297Z,96390.53
2024-04-15T13:36:33.027Z,96384.00
2024-04-15T13:38:59.742Z,96376.63
2024-04-15T13:41:26.498Z,96381.84
2024-04-15T13:43:53.259Z,96371.63
2024-04-15T13:46:20.171Z,96363.16
2024-04-15T13:48:46.979Z,96372.88
2024-04-15T13:51:13.690Z,96360.38
2024-04-15T13:53:40.390Z,96353.44
2024-04-15T13:56:07.590Z,96358.06
2024-04-15T13:58:34.467Z,96337.53
2024-04-15T14:01:01.277Z,96327.69
2024-04-15T14:03:28.378Z,96345.06
2024-04-15T14:05:55.227Z,96350.69
2024-04-15T14:08:22.920Z,96345.63
2024-04-15T14:10:50.084Z,96330.34
2024-04-15T14:13:17.466Z,96350.03
2024-04-15T14:15:44.508Z,96350.97
2024-04-15T14:18:11.530Z,96349.38
2024-04-15T14:20:38.231Z,96340.59
2024-04-15T14:23:05.659Z,96333.75
2024-04-15T14:25:32.457Z,96326.09
2024-04-15T14:27:59.339Z,96330.91
2024-04-15T14:30:26.075Z,96329.66
2024-04-15T14:32:53.171Z,96323.28
2024-04-15T14:35:19.956Z,96320.06
2024-04-15T14:37:46.787Z,96311.38
2024-04-15T14:40:21.946Z,96306.94
2024-04-15T14:42:51.096Z,96314.34
2024-04-15T14:45:18.219Z,96312.22
2024-04-15T14:47:46.731Z,96309.34
2024-04-15T14:50:13.826Z,96314.28
2024-04-15T14:52:40.531Z,96290.53
2024-04-15T14:55:07.463Z,96307.72
2024-04-15T14:57:34.300Z,96313.63
2024-04-15T15:00:01.186Z,96312.44
2024-04-15T15:02:27.974Z,96331.91
2024-04-15T15:04:54.758Z,96315.16
2024-04-15T15:07:21.609Z,96324.91
2024-04-15T15:09:48.432Z,96323.94
2024-04-15T15:12:15.361Z,96327.31
2024-04-15T15:14:42.150Z,96316.53
2024-04-15T15:17:09.408Z,96306.25
2024-04-15T15:19:36.666Z,96325.53
2024-04-15T15:22:03.718Z,96318.44
2024-04-15T15:24:30.454Z,96323.97
2024-04-15T15:26:57.227Z,96297.72
2024-04-15T15:29:24.176Z,96327.84
2024-04-15T15:31:51.875Z,96327.03
2024-04-15T15:34:18.817Z,96338.63
2024-04-15T15:36:45.711Z,96338.25
2024-04-15T15:39:13.395Z,96356.34
2024-04-15T15:41:40.356Z,96346.22
2024-04-15T15:44:07.050Z,96368.16
2024-04-15T15:46:34.038Z,96356.19
2024-04-15T15:49:01.145Z,96355.88
2024-04-15T15:51:28.305Z,96368.88
2024-04-15T15:53:55.022Z,96369.50
2024-04-15T15:56:21.755Z,96361.16
2024-04-15T15:58:48.494Z,96387.06
2024-04-15T16:01:15.278Z,96381.78
2024-04-15T16:03:42.305Z,96375.56
2024-04-15T16:06:09.527Z,96392.94
2024-04-15T16:08:36.689Z,96402.78
2024-04-15T16:11:03.614Z,96388.13
2024-04-15T16:13:30.447Z,96379.75
2024-04-15T16:15:57.200Z,96395.25
2024-04-15T16:18:23.893Z,96396.97
2024-04-15T16:20:51.036Z,96397.91
2024-04-15T16:23:17.827Z,96398.53
2024-04-15T16:25:44.674Z,96399.19
2024-04-15T16:28:11.789Z,96391.34
2024-04-15T16:30:38.716Z,96384.47
2024-04-15T16:33:05.745Z,96394.84
2024-04-15T16:35:32.582Z,96379.84
2024-04-15T16:37:59.296Z,96395.47
2024-04-15T16:40:26.135Z,96372.31
2024-04-15T16:42:55.378Z,96382.28
2024-04-15T16:45:22.255Z,96373.84
2024-04-15T16:50:59.104Z,96358.00
2024-04-15T16:54:04.175Z,96365.97
2024-04-15T16:56:40.293Z,96350.47
2024-04-15T16:59:07.366Z,96360.25
2024-04-15T17:01:34.293Z,96356.06
2024-04-15T17:04:01.384Z,93452.06
2024-04-15T17:06:28.598Z,96326.97
2024-04-15T17:08:56.901Z,96351.91
2024-04-15T17:11:23.814Z,96345.91
2024-04-15T17:13:50.602Z,96354.38
2024-04-15T17:16:17.422Z,96353.59
2024-04-15T17:18:44.390Z,96351.34
2024-04-15T17:21:11.089Z,96346.09
2024-04-15T17:23:37.782Z,96352.97
2024-04-15T17:26:04.752Z,96352.53
2024-04-15T17:28:31.662Z,96335.06
2024-04-15T17:30:58.382Z,96337.81
2024-04-15T17:33:25.147Z,96343.78
2024-04-15T17:35:52.239Z,96336.06
2024-04-15T17:38:18.975Z,96358.31
2024-04-15T17:40:45.650Z,96336.31
2024-04-15T17:43:12.359Z,96356.69
2024-04-15T17:45:39.190Z,96325.63
2024-04-15T17:48:06.327Z,96315.06
2024-04-15T17:50:33.035Z,96338.03
2024-04-15T17:52:59.755Z,96317.34
2024-04-15T17:55:26.765Z,96333.09
2024-04-15T17:57:58.332Z,96343.53
2024-04-15T18:00:26.698Z,96327.13
2024-04-15T18:02:56.672Z,96323.84
2024-04-15T18:05:24.155Z,96319.06
2024-04-15T18:07:50.836Z,96322.84
2024-04-15T18:10:18.574Z,96336.78
2024-04-15T18:12:48.174Z,96339.03
2024-04-15T18:15:15.339Z,96351.28
2024-04-15T18:17:42.586Z,96374.94
2024-04-15T18:20:09.959Z,96423.53
2024-04-15T18:22:36.956Z,96448.94
2024-04-15T18:25:04.167Z,96459.03
2024-04-15T18:27:30.962Z,96500.94
2024-04-15T18:29:58.033Z,96522.56
2024-04-15T18:32:24.904Z,96532.25
2024-04-15T18:34:51.637Z,96533.59
2024-04-15T18:37:19.685Z,96548.06
2024-04-15T18:39:46.595Z,96542.47
2024-04-15T18:42:13.386Z,96556.84
2024-04-15T18:44:40.299Z,96561.41
2024-04-15T18:47:07.029Z,96562.41
2024-04-15T18:49:33.763Z,96564.69
2024-04-15T18:52:01.115Z,96578.09
2024-04-15T18:54:27.862Z,96575.91
2024-04-15T18:56:54.813Z,96568.69
2024-04-15T18:59:21.575Z,96573.03
2024-04-15T19:01:48.264Z,96575.78
2024-04-15T19:04:15.104Z,96569.38
2024-04-15T19:06:41.963Z,96574.25
2024-04-15T19:09:08.796Z,96585.75
2024-04-15T19:11:35.531Z,96598.69
2024-04-15T19:14:02.623Z,96596.69
2024-04-15T19:16:29.718Z,96593.84
2024-04-15T19:18:57.866Z,96603.91
2024-04-15T19:21:24.787Z,96615.50
2024-04-15T19:23:51.885Z,96618.53
2024-04-15T19:26:18.550Z,96611.22
2024-04-15T19:28:45.240Z,96619.25
2024-04-15T19:31:22.831Z,96608.09
2024-04-15T19:33:56.367Z,96609.09
2024-04-15T19:36:23.139Z,96613.97
2024-04-15T19:38:49.870Z,96621.56
2024-04-15T19:41:16.546Z,96619.69
2024-04-15T19:43:43.254Z,96638.19
2024-04-15T19:46:10.002Z,96635.91
2024-04-15T19:48:37.755Z,96640.94
2024-04-15T19:51:04.587Z,96652.81
2024-04-15T19:53:31.320Z,96644.50
2024-04-15T19:55:57.988Z,96638.66
2024-04-15T19:58:24.740Z,96669.44
2024-04-15T20:00:51.648Z,96667.16
2024-04-15T20:03:18.343Z,96682.38
2024-04-15T20:05:45.236Z,96657.84
2024-04-15T20:08:20.603Z,96678.19
2024-04-15T20:10:48.410Z,96720.34
2024-04-15T20:13:15.366Z,96675.03
2024-04-15T20:15:42.141Z,96671.16
2024-04-15T20:18:22.221Z,96667.00
2024-04-15T20:20:50.045Z,96666.72
2024-04-15T20:23:18.253Z,96663.44
2024-04-15T20:25:45.785Z,96669.88
2024-04-15T20:28:12.664Z,96670.47
2024-04-15T20:30:39.391Z,96646.66
2024-04-15T20:33:07.426Z,96652.28
2024-04-15T20:35:34.195Z,96651.69
2024-04-15T20:38:00.876Z,96633.22
2024-04-15T20:40:35.585Z,96625.75
2024-04-15T20:43:07.607Z,96624.88
2024-04-15T20:45:35.120Z,96611.25
2024-04-15T20:48:02.063Z,96615.16
2024-04-15T20:50:28.922Z,96610.97
2024-04-15T20:52:55.702Z,96615.69
2024-04-15T20:55:22.432Z,96629.19
2024-04-15T20:57:49.242Z,96623.72
2024-04-15T21:00:15.922Z,96612.84
2024-04-15T21:02:42.743Z,96622.84
2024-04-15T21:05:09.457Z,96593.66
2024-04-15T21:07:36.677Z,96615.44
2024-04-15T21:10:03.563Z,96611.97
2024-04-15T21:12:30.344Z,96610.53
2024-04-15T21:14:57.020Z,96615.97
2024-04-15T21:17:23.786Z,96609.09
2024-04-15T21:19:50.489Z,96622.16
2024-04-15T21:22:17.223Z,96599.66
2024-04-15T21:24:43.952Z,96605.81
2024-04-15T21:27:10.711Z,96609.09
2024-04-15T21:29:37.449Z,96609.09
2024-04-15T21:32:04.448Z,96597.63
2024-04-15T21:34:31.214Z,96600.34
2024-04-15T21:36:58.047Z,96603.78
2024-04-15T21:39:24.822Z,96596.91
2024-04-15T21:41:51.587Z,96591.47
2024-04-15T21:44:18.349Z,96594.19
2024-04-15T21:46:45.227Z,96599.66
2024-04-15T21:49:12.108Z,96592.19
2024-04-15T21:51:38.873Z,96588.75
2024-04-15T21:54:05.685Z,96577.88
2024-04-15T21:56:32.437Z,96571.69
2024-04-15T21:58:59.287Z,96562.22
2024-04-15T22:01:26.111Z,96562.94
2024-04-15T22:03:53.741Z,96552.78
2024-04-15T22:06:21.410Z,96556.94
2024-04-15T22:08:48.183Z,96546.06
2024-04-15T22:11:14.964Z,96552.94
2024-04-15T22:13:41.806Z,96547.34
2024-04-15T22:16:10.679Z,96545.47
2024-04-15T22:18:37.582Z,96557.78
2024-04-15T22:21:04.606Z,96555.06
2024-04-15T22:23:31.364Z,96546.31
2024-04-15T22:25:58.882Z,96557.94
2024-04-15T22:28:25.809Z,96557.94
2024-04-15T22:30:52.638Z,96552.50
2024-04-15T22:33:19.615Z,96545.75
2024-04-15T22:35:46.459Z,96544.34
2024-04-15T22:38:13.295Z,96543.59
2024-04-15T22:40:40.247Z,96533.44
2024-04-15T22:43:07.653Z,96529.97
2024-04-15T22:45:34.686Z,96533.44
2024-04-15T22:48:01.830Z,96537.44
2024-04-15T22:50:28.586Z,96543.59
2024-04-15T22:52:55.758Z,96549.78
2024-04-15T22:55:22.566Z,96546.31
2024-04-15T22:57:50.154Z,96543.59
2024-04-15T23:00:19.524Z,96547.78
2024-04-15T23:02:47.939Z,96538.16
2024-04-15T23:05:14.664Z,96526.00
2024-04-15T23:07:41.354Z,96528.72
2024-04-15T23:10:08.133Z,96528.00
2024-04-15T23:12:34.814Z,96540.31
2024-04-15T23:15:01.602Z,96534.28
2024-04-15T23:17:28.453Z,96529.56
2024-04-15T23:19:56.928Z,96516.66
2024-04-15T23:22:23.637Z,96513.94
2024-04-15T23:24:51.629Z,96507.75
2024-04-15T23:27:18.287Z,96537.72
2024-04-15T23:29:44.992Z,96534.28
2024-04-15T23:32:11.687Z,96547.91
2024-04-15T23:34:38.512Z,96539.72
2024-04-15T23:37:05.318Z,96533.00
2024-04-15T23:39:32.019Z,96527.53
2024-04-15T23:41:58.651Z,96524.25
2024-04-15T23:44:25.316Z,96523.53
2024-04-15T23:47:10.377Z,96518.81
2024-04-15T23:49:56.107Z,96513.22
2024-04-15T23:52:41.763Z,96517.38
2024-04-15T23:55:27.291Z,96527.53
2024-04-15T23:57:57.928Z,96501.72
